createdAt,value
2019-02-22T00:00:09.041Z,53.30
2019-02-22T00:01:10.031Z,52.00
2019-02-22T00:02:09.026Z,52.20
2019-02-22T00:03:10.001Z,52.10
2019-02-22T00:04:10.027Z,50.60
2019-02-22T00:05:09.985Z,51.10
2019-02-22T00:06:08.973Z,50.80
2019-02-22T00:07:08.989Z,51.10
2019-02-22T00:08:08.953Z,52.70
2019-02-22T00:09:09.981Z,50.90
2019-02-22T00:10:09.938Z,48.50
2019-02-22T00:11:09.937Z,47.10
2019-02-22T00:12:09.935Z,49.70
2019-02-22T00:13:09.919Z,49.00
2019-02-22T00:14:08.887Z,48.00
2019-02-22T00:15:09.877Z,46.40
2019-02-22T00:16:09.855Z,47.40
2019-02-22T00:17:09.847Z,46.90
2019-02-22T00:18:09.880Z,48.70
2019-02-22T00:19:09.857Z,46.20
2019-02-22T00:20:08.817Z,45.30
2019-02-22T00:21:09.805Z,45.80
2019-02-22T00:22:08.797Z,45.40
2019-02-22T00:23:09.777Z,45.10
2019-02-22T00:24:08.819Z,44.20
2019-02-22T00:25:09.789Z,46.30
2019-02-22T00:26:11.118Z,47.00
2019-02-22T00:28:08.729Z,45.70
2019-02-22T00:29:09.721Z,46.30
2019-02-22T00:30:08.706Z,45.90
2019-02-22T00:31:09.729Z,46.30
2019-02-22T00:32:09.685Z,47.20
2019-02-22T00:33:11.183Z,46.10
2019-02-22T00:34:09.686Z,45.30
2019-02-22T00:35:09.716Z,45.50
2019-02-22T00:36:09.639Z,45.30
2019-02-22T00:37:09.641Z,45.60
2019-02-22T00:38:08.643Z,45.90
2019-02-22T00:39:08.609Z,45.60
2019-02-22T00:40:09.610Z,44.50
2019-02-22T00:41:09.578Z,45.40
2019-02-22T00:42:09.578Z,46.30
2019-02-22T00:43:09.571Z,44.70
2019-02-22T00:44:09.545Z,44.10
2019-02-22T00:45:09.550Z,44.60
2019-02-22T00:46:09.597Z,45.30
2019-02-22T00:47:09.529Z,43.20
2019-02-22T00:48:12.344Z,43.30
2019-02-22T00:49:09.499Z,43.80
2019-02-22T00:50:09.481Z,43.40
2019-02-22T00:51:08.479Z,43.60
2019-02-22T00:52:08.501Z,41.80
2019-02-22T00:53:08.449Z,42.90
2019-02-22T00:54:09.455Z,42.70
2019-02-22T00:55:09.454Z,42.90
2019-02-22T00:56:09.419Z,43.00
2019-02-22T00:57:08.408Z,41.00
2019-02-22T00:58:09.398Z,41.30
2019-02-22T00:59:08.394Z,41.60
2019-02-22T01:00:09.425Z,39.70
2019-02-22T01:01:09.364Z,42.70
2019-02-22T01:02:08.353Z,41.50
2019-02-22T01:03:08.346Z,41.20
2019-02-22T01:04:09.334Z,42.20
2019-02-22T01:05:08.318Z,43.00
2019-02-22T01:06:09.476Z,42.50
2019-02-22T01:07:08.298Z,41.90
2019-02-22T01:08:09.295Z,42.80
2019-02-22T01:09:09.274Z,43.20
2019-02-22T01:10:09.286Z,43.10
2019-02-22T01:11:09.316Z,42.80
2019-02-22T01:12:08.297Z,42.70
2019-02-22T01:13:09.229Z,43.10
2019-02-22T01:14:09.225Z,43.80
2019-02-22T01:15:09.211Z,42.40
2019-02-22T01:16:09.198Z,44.00
2019-02-22T01:17:09.210Z,43.40
2019-02-22T01:18:09.173Z,45.00
2019-02-22T01:19:09.166Z,46.40
2019-02-22T01:20:08.152Z,49.90
2019-02-22T01:21:09.145Z,48.10
2019-02-22T01:22:08.150Z,48.70
2019-02-22T01:23:09.175Z,50.40
2019-02-22T01:24:09.111Z,51.00
2019-02-22T01:25:09.100Z,50.30
2019-02-22T01:26:08.102Z,52.20
2019-02-22T01:27:09.081Z,51.10
2019-02-22T01:28:09.086Z,50.40
2019-02-22T01:29:09.081Z,51.20
2019-02-22T01:30:09.061Z,49.10
2019-02-22T01:31:09.031Z,50.50
2019-02-22T01:32:09.026Z,49.80
2019-02-22T01:33:09.014Z,50.30
2019-02-22T01:34:09.002Z,52.70
2019-02-22T01:35:09.003Z,50.80
2019-02-22T01:36:07.980Z,53.40
2019-02-22T01:37:07.969Z,52.40
2019-02-22T01:38:07.984Z,54.50
2019-02-22T01:39:07.950Z,52.40
2019-02-22T01:40:07.934Z,51.40
2019-02-22T01:41:08.940Z,51.20
2019-02-22T01:42:10.750Z,49.70
2019-02-22T01:43:07.898Z,52.40
2019-02-22T01:44:08.933Z,51.90
2019-02-22T01:45:08.897Z,50.70
2019-02-22T01:46:08.871Z,50.50
2019-02-22T01:47:08.859Z,48.20
2019-02-22T01:48:08.849Z,48.90
2019-02-22T01:49:07.865Z,49.90
2019-02-22T01:50:07.830Z,50.80
2019-02-22T01:51:08.854Z,50.10
2019-02-22T01:52:08.799Z,48.20
2019-02-22T01:53:08.801Z,50.20
2019-02-22T01:54:08.783Z,50.10
2019-02-22T01:55:07.779Z,51.80
2019-02-22T01:56:08.794Z,50.50
2019-02-22T01:57:08.751Z,51.30
2019-02-22T01:58:07.738Z,49.30
2019-02-22T01:59:07.735Z,49.40
2019-02-22T02:00:08.713Z,47.20
2019-02-22T02:01:08.745Z,46.70
2019-02-22T02:02:08.688Z,46.60
2019-02-22T02:03:08.675Z,47.40
2019-02-22T02:04:08.702Z,47.90
2019-02-22T02:06:07.685Z,50.30
2019-02-22T02:07:07.650Z,45.50
2019-02-22T02:08:08.628Z,47.10
2019-02-22T02:09:08.249Z,46.50
2019-02-22T02:10:08.602Z,48.70
2019-02-22T02:11:07.630Z,45.30
2019-02-22T02:12:08.581Z,47.40
2019-02-22T02:13:08.574Z,46.70
2019-02-22T02:14:08.560Z,45.70
2019-02-22T02:15:08.555Z,45.10
2019-02-22T02:16:08.562Z,46.50
2019-02-22T02:17:08.558Z,44.10
2019-02-22T02:18:08.516Z,47.80
2019-02-22T02:19:08.514Z,44.10
2019-02-22T02:20:08.580Z,47.90
2019-02-22T02:21:08.483Z,45.20
2019-02-22T02:22:08.468Z,44.70
2019-02-22T02:23:08.502Z,45.90
2019-02-22T02:24:08.455Z,43.50
2019-02-22T02:25:08.445Z,42.60
2019-02-22T02:26:07.432Z,42.90
2019-02-22T02:27:08.428Z,44.70
2019-02-22T02:28:08.415Z,42.90
2019-02-22T02:29:08.425Z,42.30
2019-02-22T02:30:08.399Z,44.30
2019-02-22T02:31:08.378Z,43.80
2019-02-22T02:32:08.397Z,43.50
2019-02-22T02:33:08.358Z,42.10
2019-02-22T02:34:08.342Z,42.80
2019-02-22T02:35:08.333Z,42.10
2019-02-22T02:36:08.321Z,41.00
2019-02-22T02:37:08.308Z,42.10
2019-02-22T02:38:08.329Z,42.00
2019-02-22T02:39:08.284Z,42.00
2019-02-22T02:40:07.280Z,40.10
2019-02-22T02:41:11.164Z,41.50
2019-02-22T02:42:08.254Z,38.50
2019-02-22T02:43:07.244Z,39.20
2019-02-22T02:44:08.265Z,38.90
2019-02-22T02:45:08.217Z,38.10
2019-02-22T02:46:08.245Z,38.00
2019-02-22T02:47:07.211Z,38.20
2019-02-22T02:48:08.188Z,39.30
2019-02-22T02:49:07.176Z,37.90
2019-02-22T02:50:08.170Z,37.40
2019-02-22T02:51:07.189Z,36.60
2019-02-22T02:52:08.153Z,34.70
2019-02-22T02:53:08.138Z,35.30
2019-02-22T02:54:08.135Z,35.70
2019-02-22T02:55:07.110Z,35.10
2019-02-22T02:56:07.137Z,34.00
2019-02-22T02:57:07.101Z,34.00
2019-02-22T02:58:08.076Z,32.80
2019-02-22T02:59:08.066Z,33.60
2019-02-22T03:00:08.052Z,31.70
2019-02-22T03:01:07.083Z,32.70
2019-02-22T03:02:07.035Z,31.90
2019-02-22T03:03:08.037Z,32.30
2019-02-22T03:04:08.020Z,32.90
2019-02-22T03:05:08.038Z,32.80
2019-02-22T03:06:07.986Z,33.60
2019-02-22T03:07:07.982Z,31.60
2019-02-22T03:08:07.969Z,31.70
2019-02-22T03:09:06.966Z,31.00
2019-02-22T03:10:07.971Z,32.30
2019-02-22T03:11:19.683Z,34.00
2019-02-22T03:12:07.927Z,32.40
2019-02-22T03:13:06.917Z,32.40
2019-02-22T03:14:07.900Z,34.60
2019-02-22T03:15:07.898Z,33.30
2019-02-22T03:16:07.922Z,34.00
2019-02-22T03:17:07.873Z,33.90
2019-02-22T03:18:07.868Z,34.50
2019-02-22T03:19:06.850Z,33.60
2019-02-22T03:20:07.868Z,34.10
2019-02-22T03:21:07.828Z,35.50
2019-02-22T03:22:06.822Z,34.60
2019-02-22T03:23:07.796Z,34.00
2019-02-22T03:24:07.794Z,34.60
2019-02-22T03:25:07.778Z,35.30
2019-02-22T03:26:06.793Z,36.00
2019-02-22T03:27:07.760Z,35.80
2019-02-22T03:28:06.755Z,33.90
2019-02-22T03:29:07.735Z,34.90
2019-02-22T03:31:06.728Z,35.00
2019-02-22T03:32:07.713Z,34.30
2019-02-22T03:33:06.705Z,33.50
2019-02-22T03:34:06.911Z,33.00
2019-02-22T03:35:07.702Z,33.40
2019-02-22T03:37:07.042Z,33.70
2019-02-22T03:39:06.630Z,33.30
2019-02-22T03:40:07.623Z,31.60
2019-02-22T03:41:07.608Z,31.50
2019-02-22T03:42:07.630Z,32.80
2019-02-22T03:43:07.585Z,31.20
2019-02-22T03:44:07.573Z,30.50
2019-02-22T03:45:07.594Z,30.20
2019-02-22T03:46:07.553Z,30.40
2019-02-22T03:47:07.571Z,30.90
2019-02-22T03:48:07.533Z,29.70
2019-02-22T03:49:06.523Z,29.80
2019-02-22T03:50:06.507Z,27.80
2019-02-22T03:51:07.506Z,29.80
2019-02-22T03:52:07.514Z,26.50
2019-02-22T03:53:07.475Z,28.10
2019-02-22T03:55:06.452Z,25.40
2019-02-22T03:56:07.439Z,27.00
2019-02-22T03:57:06.463Z,24.30
2019-02-22T03:58:06.422Z,25.50
2019-02-22T03:59:07.408Z,24.20
2019-02-22T04:00:06.406Z,21.50
2019-02-22T04:01:06.390Z,21.40
2019-02-22T04:03:06.412Z,22.30
2019-02-22T04:04:07.351Z,21.30
2019-02-22T04:05:06.339Z,21.30
2019-02-22T04:06:07.328Z,20.80
2019-02-22T04:07:06.320Z,20.90
2019-02-22T04:08:07.582Z,20.90
2019-02-22T04:09:06.298Z,21.10
2019-02-22T04:10:06.306Z,20.80
2019-02-22T04:11:07.285Z,20.90
2019-02-22T04:12:07.309Z,19.30
2019-02-22T04:13:07.253Z,19.00
2019-02-22T04:14:06.249Z,19.80
2019-02-22T04:15:07.231Z,19.60
2019-02-22T04:16:06.261Z,18.30
2019-02-22T04:17:07.215Z,18.80
2019-02-22T04:18:07.204Z,19.30
2019-02-22T04:19:07.196Z,19.80
2019-02-22T04:20:06.182Z,20.40
2019-02-22T04:21:07.704Z,19.40
2019-02-22T04:22:07.159Z,18.80
2019-02-22T04:23:06.151Z,18.30
2019-02-22T04:24:07.129Z,17.70
2019-02-22T04:25:06.126Z,18.60
2019-02-22T04:26:07.112Z,18.10
2019-02-22T04:27:07.129Z,17.50
2019-02-22T04:28:07.095Z,17.00
2019-02-22T04:29:07.079Z,16.50
2019-02-22T04:30:07.079Z,17.90
2019-02-22T04:31:07.060Z,17.60
2019-02-22T04:32:07.054Z,17.30
2019-02-22T04:33:06.074Z,20.50
2019-02-22T04:34:07.025Z,18.00
2019-02-22T04:35:07.072Z,15.90
2019-02-22T04:36:06.033Z,16.00
2019-02-22T04:37:06.991Z,16.20
2019-02-22T04:38:06.984Z,16.00
2019-02-22T04:39:07.055Z,16.00
2019-02-22T04:40:06.959Z,15.60
2019-02-22T04:41:06.987Z,14.80
2019-02-22T04:42:06.970Z,15.50
2019-02-22T04:43:06.926Z,15.50
2019-02-22T04:44:06.908Z,15.20
2019-02-22T04:45:05.903Z,14.90
2019-02-22T04:46:06.894Z,14.50
2019-02-22T04:47:07.716Z,13.50
2019-02-22T04:48:06.902Z,13.70
2019-02-22T04:49:06.859Z,12.80
2019-02-22T04:50:06.864Z,13.60
2019-02-22T04:51:06.835Z,13.70
2019-02-22T04:52:06.836Z,13.70
2019-02-22T04:53:06.831Z,13.20
2019-02-22T04:54:06.813Z,12.60
2019-02-22T04:55:05.798Z,13.30
2019-02-22T04:56:05.806Z,12.30
2019-02-22T04:57:06.777Z,12.90
2019-02-22T04:58:05.765Z,13.00
2019-02-22T04:59:06.752Z,12.90
2019-02-22T05:00:06.834Z,13.10
2019-02-22T05:01:05.727Z,13.30
2019-02-22T05:02:05.753Z,13.50
2019-02-22T05:03:06.718Z,13.90
2019-02-22T05:04:06.697Z,12.20
2019-02-22T05:05:06.690Z,12.20
2019-02-22T05:06:06.683Z,12.40
2019-02-22T05:07:06.682Z,10.70
2019-02-22T05:08:06.654Z,12.00
2019-02-22T05:09:05.645Z,12.20
2019-02-22T05:10:05.633Z,12.00
2019-02-22T05:11:05.628Z,12.70
2019-02-22T05:12:10.883Z,12.80
2019-02-22T05:13:06.623Z,12.00
2019-02-22T05:14:06.597Z,12.50
2019-02-22T05:15:12.489Z,12.00
2019-02-22T05:16:06.576Z,12.60
2019-02-22T05:17:06.602Z,12.50
2019-02-22T05:18:06.546Z,11.90
2019-02-22T05:19:05.533Z,12.20
2019-02-22T05:20:06.522Z,12.00
2019-02-22T05:22:05.543Z,12.10
2019-02-22T05:23:07.571Z,12.30
2019-02-22T05:24:06.481Z,12.00
2019-02-22T05:25:06.464Z,12.10
2019-02-22T05:26:06.463Z,11.20
2019-02-22T05:27:06.477Z,11.00
2019-02-22T05:28:06.440Z,11.80
2019-02-22T05:29:06.424Z,11.70
2019-02-22T05:30:06.423Z,11.30
2019-02-22T05:31:06.407Z,10.90
2019-02-22T05:32:06.388Z,11.10
2019-02-22T05:33:06.419Z,11.00
2019-02-22T05:34:05.376Z,11.80
2019-02-22T05:35:06.354Z,11.10
2019-02-22T05:36:07.415Z,11.40
2019-02-22T05:37:05.363Z,10.00
2019-02-22T05:38:06.337Z,11.90
2019-02-22T05:39:18.069Z,10.80
2019-02-22T05:40:06.344Z,10.60
2019-02-22T05:41:05.302Z,11.10
2019-02-22T05:42:06.287Z,11.60
2019-02-22T05:43:06.274Z,11.60
2019-02-22T05:44:06.274Z,10.40
2019-02-22T05:45:05.253Z,10.80
2019-02-22T05:46:05.238Z,9.80
2019-02-22T05:47:06.231Z,10.10
2019-02-22T05:48:06.214Z,9.60
2019-02-22T05:49:06.208Z,9.10
2019-02-22T05:50:06.204Z,9.60
2019-02-22T05:51:06.195Z,9.60
2019-02-22T05:52:06.176Z,8.10
2019-02-22T05:53:06.170Z,7.80
2019-02-22T05:54:06.154Z,8.10
2019-02-22T05:55:05.141Z,8.10
2019-02-22T05:56:05.147Z,7.60
2019-02-22T05:57:05.154Z,8.10
2019-02-22T05:58:06.128Z,8.20
2019-02-22T05:59:05.094Z,8.40
2019-02-22T06:00:06.096Z,8.20
2019-02-22T06:01:07.013Z,8.00
2019-02-22T06:02:06.063Z,8.30
2019-02-22T06:03:06.255Z,8.40
2019-02-22T06:04:05.043Z,8.20
2019-02-22T06:05:06.029Z,8.30
2019-02-22T06:06:05.104Z,8.40
2019-02-22T06:07:05.010Z,8.50
2019-02-22T06:08:08.843Z,8.40
2019-02-22T06:09:06.015Z,8.30
2019-02-22T06:10:05.977Z,8.40
2019-02-22T06:11:04.959Z,8.40
2019-02-22T06:12:05.987Z,8.90
2019-02-22T06:13:05.935Z,8.60
2019-02-22T06:14:05.933Z,9.40
2019-02-22T06:15:04.923Z,8.90
2019-02-22T06:16:04.914Z,9.30
2019-02-22T06:17:14.133Z,9.20
2019-02-22T06:18:05.913Z,8.90
2019-02-22T06:19:04.872Z,9.00
2019-02-22T06:20:05.859Z,8.40
2019-02-22T06:21:05.862Z,8.90
2019-02-22T06:22:04.854Z,8.50
2019-02-22T06:23:05.837Z,8.80
2019-02-22T06:24:05.868Z,8.70
2019-02-22T06:25:04.822Z,8.00
2019-02-22T06:26:05.815Z,9.50
2019-02-22T06:27:05.791Z,9.20
2019-02-22T06:28:05.775Z,8.80
2019-02-22T06:29:04.766Z,9.20
2019-02-22T06:30:05.782Z,8.90
2019-02-22T06:31:05.743Z,8.50
2019-02-22T06:32:05.727Z,8.00
2019-02-22T06:33:04.727Z,8.40
2019-02-22T06:34:08.521Z,8.90
2019-02-22T06:35:04.758Z,8.00
2019-02-22T06:36:05.744Z,8.70
2019-02-22T06:37:05.687Z,8.10
2019-02-22T06:38:06.167Z,9.00
2019-02-22T06:39:05.653Z,12.10
2019-02-22T06:40:05.669Z,8.10
2019-02-22T06:41:05.675Z,8.40
2019-02-22T06:42:04.627Z,8.20
2019-02-22T06:43:05.607Z,8.20
2019-02-22T06:44:08.172Z,8.40
2019-02-22T06:45:05.626Z,8.40
2019-02-22T06:46:04.576Z,8.70
2019-02-22T06:47:04.568Z,8.80
2019-02-22T06:48:04.575Z,8.90
2019-02-22T06:49:05.547Z,9.10
2019-02-22T06:50:04.564Z,8.70
2019-02-22T06:51:05.523Z,7.90
2019-02-22T06:52:05.508Z,7.90
2019-02-22T06:53:05.503Z,7.50
2019-02-22T06:54:05.487Z,7.10
2019-02-22T06:55:05.516Z,7.50
2019-02-22T06:56:05.478Z,7.40
2019-02-22T06:57:08.666Z,7.40
2019-02-22T06:58:05.438Z,7.00
2019-02-22T06:59:04.435Z,7.00
2019-02-22T07:00:05.425Z,7.00
2019-02-22T07:01:05.415Z,7.80
2019-02-22T07:02:07.666Z,7.30
2019-02-22T07:03:05.401Z,7.50
2019-02-22T07:04:05.391Z,7.50
2019-02-22T07:05:05.367Z,7.40
2019-02-22T07:06:05.651Z,7.40
2019-02-22T07:07:05.400Z,7.10
2019-02-22T07:08:05.349Z,7.60
2019-02-22T07:09:04.329Z,7.90
2019-02-22T07:10:04.317Z,8.30
2019-02-22T07:11:04.302Z,8.20
2019-02-22T07:12:05.289Z,8.80
2019-02-22T07:13:05.313Z,7.80
2019-02-22T07:14:05.263Z,7.70
2019-02-22T07:15:07.167Z,7.80
2019-02-22T07:16:04.254Z,8.70
2019-02-22T07:17:04.237Z,9.10
2019-02-22T07:18:08.151Z,8.40
2019-02-22T07:19:05.208Z,8.80
2019-02-22T07:20:04.249Z,8.10
2019-02-22T07:21:08.156Z,8.60
2019-02-22T07:22:05.173Z,9.20
2019-02-22T07:23:08.084Z,8.10
2019-02-22T07:24:05.167Z,8.20
2019-02-22T07:25:05.179Z,8.60
2019-02-22T07:26:05.135Z,8.30
2019-02-22T07:27:05.126Z,8.50
2019-02-22T07:28:05.141Z,7.60
2019-02-22T07:29:05.099Z,8.30
2019-02-22T07:30:05.095Z,7.90
2019-02-22T07:31:05.082Z,8.20
2019-02-22T07:32:06.373Z,8.20
2019-02-22T07:33:05.099Z,8.70
2019-02-22T07:34:05.051Z,8.30
2019-02-22T07:35:05.050Z,8.40
2019-02-22T07:36:05.021Z,8.50
2019-02-22T07:37:05.022Z,8.40
2019-02-22T07:38:05.013Z,8.80
2019-02-22T07:39:05.024Z,8.10
2019-02-22T07:40:04.983Z,8.70
2019-02-22T07:41:04.977Z,9.30
2019-02-22T07:42:04.965Z,9.10
2019-02-22T07:43:07.929Z,8.70
2019-02-22T07:44:04.938Z,8.60
2019-02-22T07:45:04.925Z,9.00
2019-02-22T07:46:04.909Z,9.30
2019-02-22T07:47:04.905Z,9.60
2019-02-22T07:48:04.896Z,9.50
2019-02-22T07:49:04.005Z,10.20
2019-02-22T07:50:04.865Z,9.30
2019-02-22T07:51:04.864Z,10.00
2019-02-22T07:52:03.850Z,10.10
2019-02-22T07:53:04.843Z,9.50
2019-02-22T07:54:03.838Z,9.60
2019-02-22T07:55:04.936Z,9.50
2019-02-22T07:56:03.810Z,10.40
2019-02-22T07:57:04.798Z,9.80
2019-02-22T07:58:04.782Z,9.40
2019-02-22T07:59:04.803Z,9.90
2019-02-22T08:00:03.765Z,9.40
2019-02-22T08:01:03.806Z,9.20
2019-02-22T08:02:04.736Z,9.60
2019-02-22T08:03:04.732Z,8.20
2019-02-22T08:04:03.727Z,8.00
2019-02-22T08:05:04.709Z,7.90
2019-02-22T08:06:04.733Z,6.80
2019-02-22T08:07:04.680Z,7.70
2019-02-22T08:08:04.671Z,7.10
2019-02-22T08:09:04.675Z,6.30
2019-02-22T08:10:04.675Z,6.90
2019-02-22T08:11:04.661Z,6.40
2019-02-22T08:12:04.625Z,6.70
2019-02-22T08:13:03.621Z,6.80
2019-02-22T08:14:04.616Z,6.30
2019-02-22T08:15:04.597Z,6.00
2019-02-22T08:16:03.622Z,5.80
2019-02-22T08:17:03.574Z,5.30
2019-02-22T08:18:04.558Z,5.50
2019-02-22T08:19:04.554Z,5.90
2019-02-22T08:20:03.545Z,5.50
2019-02-22T08:21:04.556Z,3.50
2019-02-22T08:22:04.519Z,3.80
2019-02-22T08:23:04.546Z,3.30
2019-02-22T08:24:04.500Z,2.50
2019-02-22T08:25:04.500Z,2.00
2019-02-22T08:26:04.510Z,1.90
2019-02-22T08:27:04.464Z,2.00
2019-02-22T08:28:03.457Z,1.90
2019-02-22T08:29:04.469Z,2.20
2019-02-22T08:30:03.430Z,2.00
2019-02-22T08:31:03.427Z,1.90
2019-02-22T08:32:04.454Z,2.00
2019-02-22T08:33:04.402Z,2.10
2019-02-22T08:34:04.383Z,2.00
2019-02-22T08:35:04.374Z,2.10
2019-02-22T08:36:04.361Z,2.40
2019-02-22T08:37:04.352Z,2.40
2019-02-22T08:38:04.376Z,2.10
2019-02-22T08:39:04.332Z,1.90
2019-02-22T08:40:04.322Z,2.30
2019-02-22T08:41:04.314Z,2.20
2019-02-22T08:42:04.304Z,2.20
2019-02-22T08:43:04.287Z,2.40
2019-02-22T08:44:04.321Z,2.50
2019-02-22T08:45:04.267Z,2.50
2019-02-22T08:46:04.294Z,2.60
2019-02-22T08:47:04.240Z,3.00
2019-02-22T08:48:03.256Z,3.30
2019-02-22T08:49:04.224Z,3.50
2019-02-22T08:50:03.210Z,3.40
2019-02-22T08:51:06.814Z,3.50
2019-02-22T08:52:04.228Z,3.90
2019-02-22T08:53:04.184Z,4.00
2019-02-22T08:54:04.198Z,3.40
2019-02-22T08:55:04.168Z,3.70
2019-02-22T08:56:04.197Z,4.20
2019-02-22T08:57:04.147Z,3.90
2019-02-22T08:58:03.133Z,3.90
2019-02-22T08:59:04.165Z,4.00
2019-02-22T09:00:03.107Z,3.70
2019-02-22T09:01:03.148Z,4.10
2019-02-22T09:02:04.084Z,3.70
2019-02-22T09:03:03.080Z,3.70
2019-02-22T09:04:04.054Z,3.80
2019-02-22T09:05:04.048Z,4.10
2019-02-22T09:06:04.043Z,4.40
2019-02-22T09:07:04.090Z,4.40
2019-02-22T09:08:03.022Z,4.00
2019-02-22T09:09:04.036Z,4.40
2019-02-22T09:10:03.000Z,4.60
2019-02-22T09:11:02.982Z,5.20
2019-02-22T09:12:03.963Z,4.30
2019-02-22T09:13:03.001Z,4.40
2019-02-22T09:14:03.947Z,4.70
2019-02-22T09:15:03.941Z,4.60
2019-02-22T09:16:02.934Z,4.60
2019-02-22T09:17:03.918Z,4.70
2019-02-22T09:18:03.931Z,4.90
2019-02-22T09:19:04.630Z,5.30
2019-02-22T09:20:03.888Z,5.10
2019-02-22T09:21:03.920Z,5.40
2019-02-22T09:22:03.855Z,5.70
2019-02-22T09:23:03.853Z,5.70
2019-02-22T09:24:02.847Z,5.90
2019-02-22T09:25:02.824Z,5.40
2019-02-22T09:26:02.815Z,5.70
2019-02-22T09:27:06.616Z,5.30
2019-02-22T09:28:03.799Z,6.40
2019-02-22T09:29:02.788Z,6.20
2019-02-22T09:30:03.777Z,5.90
2019-02-22T09:31:05.612Z,6.10
2019-02-22T09:32:03.764Z,6.00
2019-02-22T09:33:03.876Z,6.30
2019-02-22T09:34:02.733Z,6.40
2019-02-22T09:35:03.714Z,6.60
2019-02-22T09:36:03.703Z,6.60
2019-02-22T09:37:03.695Z,6.70
2019-02-22T09:38:02.680Z,6.30
2019-02-22T09:39:03.706Z,6.60
2019-02-22T09:40:03.662Z,6.80
2019-02-22T09:41:03.660Z,7.20
2019-02-22T09:42:03.643Z,6.90
2019-02-22T09:43:03.650Z,7.00
2019-02-22T09:44:03.642Z,7.20
2019-02-22T09:45:03.617Z,7.70
2019-02-22T09:46:03.594Z,7.40
2019-02-22T09:47:02.643Z,7.90
2019-02-22T09:48:02.579Z,7.50
2019-02-22T09:49:03.664Z,8.40
2019-02-22T09:50:02.550Z,7.80
2019-02-22T09:51:03.567Z,7.20
2019-02-22T09:52:03.531Z,7.50
2019-02-22T09:53:03.514Z,7.60
2019-02-22T09:54:02.547Z,8.80
2019-02-22T09:55:03.501Z,8.00
2019-02-22T09:56:03.489Z,8.20
2019-02-22T09:57:03.488Z,8.10
2019-02-22T09:58:02.471Z,8.50
2019-02-22T09:59:03.604Z,8.60
2019-02-22T10:00:03.430Z,8.40
2019-02-22T10:01:03.488Z,8.90
2019-02-22T10:02:03.422Z,8.50
2019-02-22T10:04:02.438Z,9.20
2019-02-22T10:05:02.389Z,10.40
2019-02-22T10:06:02.384Z,9.50
2019-02-22T10:07:03.366Z,8.20
2019-02-22T10:08:03.361Z,8.80
2019-02-22T10:09:04.089Z,8.70
2019-02-22T10:10:03.344Z,9.40
2019-02-22T10:11:02.334Z,9.00
2019-02-22T10:12:03.317Z,8.70
2019-02-22T10:13:03.304Z,8.50
2019-02-22T10:14:06.586Z,9.20
2019-02-22T10:15:03.305Z,9.20
2019-02-22T10:16:02.266Z,11.30
2019-02-22T10:17:03.261Z,9.60
2019-02-22T10:18:03.253Z,9.20
2019-02-22T10:19:02.237Z,8.60
2019-02-22T10:20:03.231Z,8.40
2019-02-22T10:21:03.328Z,8.70
2019-02-22T10:22:03.201Z,8.00
2019-02-22T10:23:02.193Z,8.50
2019-02-22T10:24:03.181Z,8.70
2019-02-22T10:25:02.172Z,8.70
2019-02-22T10:26:05.141Z,8.50
2019-02-22T10:27:03.152Z,9.20
2019-02-22T10:28:04.092Z,9.20
2019-02-22T10:29:02.128Z,9.90
2019-02-22T10:30:03.112Z,9.90
2019-02-22T10:31:06.094Z,9.90
2019-02-22T10:32:03.095Z,9.60
2019-02-22T10:33:03.079Z,10.70
2019-02-22T10:34:03.063Z,10.60
2019-02-22T10:35:03.056Z,10.90
2019-02-22T10:36:03.596Z,11.50
2019-02-22T10:37:03.060Z,11.50
2019-02-22T10:38:03.029Z,12.10
2019-02-22T10:39:02.015Z,11.90
2019-02-22T10:40:03.000Z,11.80
2019-02-22T10:41:02.991Z,11.00
2019-02-22T10:42:02.991Z,11.60
2019-02-22T10:43:02.997Z,11.80
2019-02-22T10:44:03.045Z,11.90
2019-02-22T10:45:02.966Z,11.70
2019-02-22T10:46:02.938Z,11.40
2019-02-22T10:47:02.924Z,11.20
2019-02-22T10:48:02.931Z,11.80
2019-02-22T10:49:01.943Z,12.00
2019-02-22T10:50:02.896Z,12.10
2019-02-22T10:51:02.889Z,12.10
2019-02-22T10:52:01.877Z,12.40
2019-02-22T10:53:02.634Z,12.50
2019-02-22T10:54:01.854Z,12.00
2019-02-22T10:55:02.866Z,12.70
2019-02-22T10:56:03.206Z,13.50
2019-02-22T10:57:02.827Z,13.10
2019-02-22T10:58:01.802Z,13.50
2019-02-22T10:59:02.805Z,13.40
2019-02-22T11:00:02.791Z,12.70
2019-02-22T11:01:02.777Z,13.30
2019-02-22T11:02:02.789Z,13.30
2019-02-22T11:03:02.755Z,13.10
2019-02-22T11:04:01.792Z,12.00
2019-02-22T11:05:01.737Z,11.30
2019-02-22T11:06:01.718Z,12.90
2019-02-22T11:07:02.741Z,12.60
2019-02-22T11:08:02.691Z,11.90
2019-02-22T11:09:02.731Z,12.50
2019-02-22T11:10:02.677Z,13.00
2019-02-22T11:11:02.666Z,13.90
2019-02-22T11:12:01.656Z,14.30
2019-02-22T11:13:01.647Z,13.60
2019-02-22T11:14:02.633Z,13.30
2019-02-22T11:15:02.652Z,13.60
2019-02-22T11:16:02.609Z,13.60
2019-02-22T11:17:02.596Z,13.70
2019-02-22T11:18:02.584Z,13.70
2019-02-22T11:19:01.571Z,13.80
2019-02-22T11:20:02.618Z,14.60
2019-02-22T11:21:01.576Z,17.20
2019-02-22T11:22:02.574Z,16.00
2019-02-22T11:23:01.533Z,15.20
2019-02-22T11:24:01.520Z,15.90
2019-02-22T11:25:01.506Z,16.70
2019-02-22T11:26:01.506Z,18.00
2019-02-22T11:27:02.523Z,18.30
2019-02-22T11:28:01.486Z,18.30
2019-02-22T11:29:01.459Z,19.30
2019-02-22T11:30:02.493Z,20.70
2019-02-22T11:31:01.457Z,21.10
2019-02-22T11:32:02.440Z,22.50
2019-02-22T11:33:02.423Z,21.60
2019-02-22T11:34:02.410Z,22.50
2019-02-22T11:35:01.404Z,21.80
2019-02-22T11:36:01.422Z,21.40
2019-02-22T11:37:02.386Z,22.00
2019-02-22T11:38:02.371Z,22.20
2019-02-22T11:39:02.345Z,21.20
2019-02-22T11:40:01.356Z,22.40
2019-02-22T11:41:02.358Z,22.70
2019-02-22T11:42:02.367Z,22.10
2019-02-22T11:43:02.311Z,22.00
2019-02-22T11:44:02.291Z,21.30
2019-02-22T11:45:02.302Z,21.70
2019-02-22T11:46:02.277Z,23.60
2019-02-22T11:47:02.304Z,22.00
2019-02-22T11:48:08.701Z,20.60
2019-02-22T11:49:02.264Z,22.00
2019-02-22T11:50:02.242Z,20.60
2019-02-22T11:51:01.244Z,22.00
2019-02-22T11:52:01.315Z,21.70
2019-02-22T11:53:02.208Z,21.40
2019-02-22T11:54:02.194Z,23.40
2019-02-22T11:55:01.190Z,23.10
2019-02-22T11:56:01.183Z,22.40
2019-02-22T11:57:01.162Z,23.60
2019-02-22T11:58:02.177Z,23.60
2019-02-22T11:59:01.140Z,24.40
2019-02-22T12:00:02.121Z,23.50
2019-02-22T12:01:02.117Z,22.10
2019-02-22T12:02:02.137Z,23.00
2019-02-22T12:03:15.923Z,23.00
2019-02-22T12:04:02.082Z,24.90
2019-02-22T12:05:02.076Z,22.90
2019-02-22T12:06:02.064Z,23.30
2019-02-22T12:07:02.068Z,23.60
2019-02-22T12:08:03.608Z,22.50
2019-02-22T12:09:02.027Z,22.20
2019-02-22T12:10:02.014Z,23.20
2019-02-22T12:11:02.007Z,21.40
2019-02-22T12:12:01.994Z,21.40
2019-02-22T12:13:01.993Z,21.10
2019-02-22T12:14:04.164Z,20.70
2019-02-22T12:15:02.088Z,21.30
2019-02-22T12:16:01.952Z,21.30
2019-02-22T12:17:01.942Z,20.50
2019-02-22T12:18:00.922Z,20.70
2019-02-22T12:19:00.944Z,21.40
2019-02-22T12:20:01.937Z,21.20
2019-02-22T12:21:00.894Z,20.60
2019-02-22T12:22:00.890Z,21.00
2019-02-22T12:23:01.880Z,21.80
2019-02-22T12:24:00.857Z,21.80
2019-02-22T12:25:01.104Z,21.60
2019-02-22T12:26:01.838Z,21.60
2019-02-22T12:27:00.830Z,20.70
2019-02-22T12:28:01.882Z,21.90
2019-02-22T12:29:00.810Z,20.30
2019-02-22T12:30:00.865Z,20.60
2019-02-22T12:31:01.780Z,21.90
2019-02-22T12:32:00.773Z,20.90
2019-02-22T12:33:00.763Z,20.90
2019-02-22T12:34:01.754Z,20.00
2019-02-22T12:35:01.802Z,20.30
2019-02-22T12:36:00.728Z,20.80
2019-02-22T12:37:00.720Z,21.60
2019-02-22T12:38:01.703Z,20.50
2019-02-22T12:39:01.768Z,21.00
2019-02-22T12:40:01.694Z,20.00
2019-02-22T12:41:01.694Z,20.80
2019-02-22T12:42:01.658Z,21.20
2019-02-22T12:43:02.557Z,20.00
2019-02-22T12:44:01.646Z,20.80
2019-02-22T12:45:03.257Z,20.20
2019-02-22T12:46:00.654Z,20.10
2019-02-22T12:47:01.653Z,21.00
2019-02-22T12:48:00.689Z,21.40
2019-02-22T12:49:01.614Z,20.90
2019-02-22T12:50:01.594Z,20.30
2019-02-22T12:51:00.573Z,20.10
2019-02-22T12:52:01.560Z,20.00
2019-02-22T12:53:00.542Z,21.40
2019-02-22T12:54:02.053Z,21.70
2019-02-22T12:55:02.060Z,20.10
2019-02-22T12:56:01.501Z,20.80
2019-02-22T12:57:00.514Z,20.70
2019-02-22T12:58:01.495Z,19.80
2019-02-22T12:59:01.477Z,19.60
2019-02-22T13:00:00.461Z,20.20
2019-02-22T13:01:01.486Z,20.20
2019-02-22T13:02:00.477Z,20.10
2019-02-22T13:03:02.330Z,22.00
2019-02-22T13:04:00.432Z,21.70
2019-02-22T13:05:01.408Z,21.10
2019-02-22T13:06:01.412Z,23.00
2019-02-22T13:07:01.423Z,23.10
2019-02-22T13:08:01.370Z,21.20
2019-02-22T13:09:00.365Z,20.40
2019-02-22T13:10:01.369Z,20.20